sensor_id;sensor_type;location;lat;lon;timestamp;pressure;altitude;pressure_sealevel;temperature;humidity
45369;BME280;51342;55.250;37.668;2022-10-16T00:03:37;100883.72;;;0.61;74.98
45369;BME280;51342;55.250;37.668;2022-10-16T00:06:09;100892.09;;;0.60;75.08
45369;BME280;51342;55.250;37.668;2022-10-16T00:08:41;100891.72;;;0.57;74.95
45369;BME280;51342;55.250;37.668;2022-10-16T00:13:55;100897.22;;;0.52;75.07
45369;BME280;51342;55.250;37.668;2022-10-16T00:16:28;100897.75;;;0.50;75.20
45369;BME280;51342;55.250;37.668;2022-10-16T00:18:59;100903.38;;;0.55;75.22
45369;BME280;51342;55.250;37.668;2022-10-16T00:21:31;100899.03;;;0.53;75.33
45369;BME280;51342;55.250;37.668;2022-10-16T00:24:05;100902.13;;;0.51;75.19
45369;BME280;51342;55.250;37.668;2022-10-16T00:26:39;100898.16;;;0.46;75.10
45369;BME280;51342;55.250;37.668;2022-10-16T00:29:10;100898.88;;;0.45;75.25
45369;BME280;51342;55.250;37.668;2022-10-16T00:31:42;100896.72;;;0.41;75.40
45369;BME280;51342;55.250;37.668;2022-10-16T00:34:13;100894.34;;;0.42;75.49
45369;BME280;51342;55.250;37.668;2022-10-16T00:36:44;100892.16;;;0.38;75.47
45369;BME280;51342;55.250;37.668;2022-10-16T00:39:16;100898.16;;;0.39;75.31
45369;BME280;51342;55.250;37.668;2022-10-16T00:41:48;100902.34;;;0.38;75.47
45369;BME280;51342;55.250;37.668;2022-10-16T00:44:51;100900.19;;;0.34;75.48
45369;BME280;51342;55.250;37.668;2022-10-16T00:50:10;100904.00;;;0.38;75.34
45369;BME280;51342;55.250;37.668;2022-10-16T00:52:47;100895.09;;;0.34;75.50
45369;BME280;51342;55.250;37.668;2022-10-16T00:55:19;100903.81;;;0.36;75.49
45369;BME280;51342;55.250;37.668;2022-10-16T00:57:51;100905.28;;;0.34;75.50
45369;BME280;51342;55.250;37.668;2022-10-16T01:00:26;100900.00;;;0.33;75.55
45369;BME280;51342;55.250;37.668;2022-10-16T01:02:59;100907.47;;;0.31;75.43
45369;BME280;51342;55.250;37.668;2022-10-16T01:05:48;100908.41;;;0.24;75.40
45369;BME280;51342;55.250;37.668;2022-10-16T01:08:34;100916.19;;;0.26;75.43
45369;BME280;51342;55.250;37.668;2022-10-16T01:11:54;100911.31;;;0.20;75.39
45369;BME280;51342;55.250;37.668;2022-10-16T01:20:58;100917.13;;;0.12;75.49
45369;BME280;51342;55.250;37.668;2022-10-16T01:29:30;100921.31;;;0.05;75.52
45369;BME280;51342;55.250;37.668;2022-10-16T01:32:13;100909.69;;;-0.01;75.75
45369;BME280;51342;55.250;37.668;2022-10-16T01:35:11;100929.31;;;0.08;75.51
45369;BME280;51342;55.250;37.668;2022-10-16T01:37:48;100924.75;;;0.05;75.88
45369;BME280;51342;55.250;37.668;2022-10-16T01:40:23;100932.94;;;0.03;75.54
45369;BME280;51342;55.250;37.668;2022-10-16T01:43:00;100938.03;;;0.03;75.54
45369;BME280;51342;55.250;37.668;2022-10-16T01:45:35;100931.66;;;-0.01;75.77
45369;BME280;51342;55.250;37.668;2022-10-16T01:48:09;100938.78;;;0.02;75.81
45369;BME280;51342;55.250;37.668;2022-10-16T01:50:44;100937.47;;;0.05;75.71
45369;BME280;51342;55.250;37.668;2022-10-16T01:53:19;100936.41;;;0.03;75.75
45369;BME280;51342;55.250;37.668;2022-10-16T01:55:52;100939.13;;;0.05;75.84
45369;BME280;51342;55.250;37.668;2022-10-16T01:58:25;100940.59;;;0.03;75.82
45369;BME280;51342;55.250;37.668;2022-10-16T02:00:58;100941.66;;;0.05;75.77
45369;BME280;51342;55.250;37.668;2022-10-16T02:03:32;100943.47;;;0.06;75.72
45369;BME280;51342;55.250;37.668;2022-10-16T02:06:05;100944.03;;;0.03;75.88
45369;BME280;51342;55.250;37.668;2022-10-16T02:08:38;100937.13;;;0.02;75.70
45369;BME280;51342;55.250;37.668;2022-10-16T02:11:11;100942.06;;;0.01;75.81
45369;BME280;51342;55.250;37.668;2022-10-16T02:13:54;100948.75;;;-0.07;75.90
45369;BME280;51342;55.250;37.668;2022-10-16T02:16:43;100954.41;;;-0.10;75.85
45369;BME280;51342;55.250;37.668;2022-10-16T02:19:17;100946.41;;;-0.06;75.76
45369;BME280;51342;55.250;37.668;2022-10-16T02:21:56;100947.50;;;-0.04;75.81
45369;BME280;51342;55.250;37.668;2022-10-16T02:24:33;100949.47;;;-0.01;75.63
45369;BME280;51342;55.250;37.668;2022-10-16T02:32:53;100952.41;;;-0.05;75.92
45369;BME280;51342;55.250;37.668;2022-10-16T02:35:25;100963.50;;;-0.05;75.80
45369;BME280;51342;55.250;37.668;2022-10-16T02:37:58;100950.03;;;-0.04;75.75
45369;BME280;51342;55.250;37.668;2022-10-16T02:40:30;100958.41;;;-0.05;75.62
45369;BME280;51342;55.250;37.668;2022-10-16T02:43:04;100951.50;;;-0.06;75.68
45369;BME280;51342;55.250;37.668;2022-10-16T02:45:35;100957.13;;;-0.08;75.67
45369;BME280;51342;55.250;37.668;2022-10-16T02:48:07;100959.84;;;-0.07;75.72
45369;BME280;51342;55.250;37.668;2022-10-16T02:50:38;100951.13;;;-0.09;75.95
45369;BME280;51342;55.250;37.668;2022-10-16T02:53:10;100961.84;;;-0.04;75.80
45369;BME280;51342;55.250;37.668;2022-10-16T02:55:41;100957.84;;;-0.02;75.72
45369;BME280;51342;55.250;37.668;2022-10-16T02:58:13;100963.84;;;-0.02;75.71
45369;BME280;51342;55.250;37.668;2022-10-16T03:00:44;100968.94;;;-0.02;75.65
45369;BME280;51342;55.250;37.668;2022-10-16T03:03:16;100963.84;;;-0.02;75.84
45369;BME280;51342;55.250;37.668;2022-10-16T03:05:47;100968.19;;;-0.01;75.73
45369;BME280;51342;55.250;37.668;2022-10-16T03:08:18;100967.13;;;-0.03;75.89
45369;BME280;51342;55.250;37.668;2022-10-16T03:10:54;100953.50;;;-0.10;75.90
45369;BME280;51342;55.250;37.668;2022-10-16T03:13:26;100970.75;;;-0.08;75.92
45369;BME280;51342;55.250;37.668;2022-10-16T03:15:57;100968.19;;;-0.08;76.08
45369;BME280;51342;55.250;37.668;2022-10-16T03:18:28;100967.69;;;-0.05;76.04
45369;BME280;51342;55.250;37.668;2022-10-16T03:21:00;100971.66;;;-0.07;76.02
45369;BME280;51342;55.250;37.668;2022-10-16T03:23:31;100980.91;;;-0.01;76.13
45369;BME280;51342;55.250;37.668;2022-10-16T03:26:03;100979.84;;;-0.03;76.04
45369;BME280;51342;55.250;37.668;2022-10-16T03:28:34;100975.47;;;-0.04;75.98
45369;BME280;51342;55.250;37.668;2022-10-16T03:31:06;100979.66;;;-0.04;76.18
45369;BME280;51342;55.250;37.668;2022-10-16T03:33:37;100972.22;;;-0.10;76.02
45369;BME280;51342;55.250;37.668;2022-10-16T03:36:08;100981.28;;;-0.12;76.31
45369;BME280;51342;55.250;37.668;2022-10-16T03:38:40;100974.19;;;-0.14;76.21
45369;BME280;51342;55.250;37.668;2022-10-16T03:41:11;100984.94;;;-0.10;76.02
45369;BME280;51342;55.250;37.668;2022-10-16T03:43:42;100987.66;;;-0.08;76.25
45369;BME280;51342;55.250;37.668;2022-10-16T03:46:14;100982.38;;;-0.10;76.08
45369;BME280;51342;55.250;37.668;2022-10-16T03:48:45;100991.09;;;-0.08;76.18
45369;BME280;51342;55.250;37.668;2022-10-16T03:51:17;100978.19;;;-0.09;76.20
45369;BME280;51342;55.250;37.668;2022-10-16T03:53:48;100987.81;;;-0.07;76.09
45369;BME280;51342;55.250;37.668;2022-10-16T03:56:19;100989.84;;;-0.04;76.09
45369;BME280;51342;55.250;37.668;2022-10-16T03:58:51;100982.56;;;-0.08;76.33
45369;BME280;51342;55.250;37.668;2022-10-16T04:01:22;100983.47;;;-0.08;76.30
45369;BME280;51342;55.250;37.668;2022-10-16T04:03:54;100999.47;;;-0.02;76.50
45369;BME280;51342;55.250;37.668;2022-10-16T04:06:25;100994.75;;;0.02;76.45
45369;BME280;51342;55.250;37.668;2022-10-16T04:08:56;100992.75;;;0.06;76.27
45369;BME280;51342;55.250;37.668;2022-10-16T04:11:28;100994.38;;;0.06;76.38
45369;BME280;51342;55.250;37.668;2022-10-16T04:14:00;100993.66;;;0.07;76.34
45369;BME280;51342;55.250;37.668;2022-10-16T04:16:31;100989.47;;;0.07;76.22
45369;BME280;51342;55.250;37.668;2022-10-16T04:19:03;100990.03;;;0.12;76.30
45369;BME280;51342;55.250;37.668;2022-10-16T04:21:34;100994.38;;;0.13;76.50
45369;BME280;51342;55.250;37.668;2022-10-16T04:24:05;100996.19;;;0.21;76.79
45369;BME280;51342;55.250;37.668;2022-10-16T04:26:37;100998.53;;;0.26;76.63
45369;BME280;51342;55.250;37.668;2022-10-16T04:29:08;100997.13;;;0.29;76.41
45369;BME280;51342;55.250;37.668;2022-10-16T04:31:40;101004.56;;;0.34;76.71
45369;BME280;51342;55.250;37.668;2022-10-16T04:34:11;101002.53;;;0.32;76.59
45369;BME280;51342;55.250;37.668;2022-10-16T04:36:42;100996.94;;;0.34;76.63
45369;BME280;51342;55.250;37.668;2022-10-16T04:39:14;101002.34;;;0.37;76.71
45369;BME280;51342;55.250;37.668;2022-10-16T04:41:45;101005.06;;;0.39;76.83
45369;BME280;51342;55.250;37.668;2022-10-16T04:44:17;100998.88;;;0.44;76.97
45369;BME280;51342;55.250;37.668;2022-10-16T04:46:50;101010.69;;;0.50;76.59
45369;BME280;51342;55.250;37.668;2022-10-16T04:49:22;101002.88;;;0.56;76.90
45369;BME280;51342;55.250;37.668;2022-10-16T04:51:53;101008.69;;;0.62;76.86
45369;BME280;51342;55.250;37.668;2022-10-16T04:54:24;101007.78;;;0.69;77.19
45369;BME280;51342;55.250;37.668;2022-10-16T04:56:56;100999.75;;;0.73;77.02
45369;BME280;51342;55.250;37.668;2022-10-16T04:59:27;101008.47;;;0.82;76.83
45369;BME280;51342;55.250;37.668;2022-10-16T05:01:59;101005.16;;;0.90;76.89
45369;BME280;51342;55.250;37.668;2022-10-16T05:04:30;101001.88;;;0.98;77.08
45369;BME280;51342;55.250;37.668;2022-10-16T05:07:01;101012.19;;;1.07;76.74
45369;BME280;51342;55.250;37.668;2022-10-16T05:09:33;101000.72;;;1.11;76.89
45369;BME280;51342;55.250;37.668;2022-10-16T05:12:04;100998.13;;;1.18;77.18
45369;BME280;51342;55.250;37.668;2022-10-16T05:14:35;101010.09;;;1.33;76.79
45369;BME280;51342;55.250;37.668;2022-10-16T05:17:07;101014.41;;;1.41;77.16
45369;BME280;51342;55.250;37.668;2022-10-16T05:19:38;101015.47;;;1.50;76.96
45369;BME280;51342;55.250;37.668;2022-10-16T05:22:10;101014.88;;;1.60;77.08
45369;BME280;51342;55.250;37.668;2022-10-16T05:24:41;101012.28;;;1.67;76.96
45369;BME280;51342;55.250;37.668;2022-10-16T05:27:12;101013.50;;;1.78;76.94
45369;BME280;51342;55.250;37.668;2022-10-16T05:29:49;101014.34;;;1.85;76.98
45369;BME280;51342;55.250;37.668;2022-10-16T05:32:21;101019.38;;;1.93;76.96
45369;BME280;51342;55.250;37.668;2022-10-16T05:34:52;101020.81;;;1.98;76.72
45369;BME280;51342;55.250;37.668;2022-10-16T05:37:24;101018.22;;;2.05;76.82
45369;BME280;51342;55.250;37.668;2022-10-16T05:39:55;101016.69;;;2.14;76.30
45369;BME280;51342;55.250;37.668;2022-10-16T05:42:26;101017.34;;;2.20;76.56
45369;BME280;51342;55.250;37.668;2022-10-16T05:44:58;101025.88;;;2.28;76.09
45369;BME280;51342;55.250;37.668;2022-10-16T05:47:29;101025.66;;;2.33;76.19
45369;BME280;51342;55.250;37.668;2022-10-16T05:50:01;101021.78;;;2.37;76.01
45369;BME280;51342;55.250;37.668;2022-10-16T05:52:32;101025.19;;;2.45;76.07
45369;BME280;51342;55.250;37.668;2022-10-16T05:55:04;101030.06;;;2.50;75.63
45369;BME280;51342;55.250;37.668;2022-10-16T05:57:35;101032.19;;;2.54;75.61
45369;BME280;51342;55.250;37.668;2022-10-16T06:00:07;101031.97;;;2.60;75.54
45369;BME280;51342;55.250;37.668;2022-10-16T06:02:43;101036.84;;;2.65;75.36
45369;BME280;51342;55.250;37.668;2022-10-16T06:05:15;101029.69;;;2.70;75.30
45369;BME280;51342;55.250;37.668;2022-10-16T06:07:46;101029.44;;;2.76;75.18
45369;BME280;51342;55.250;37.668;2022-10-16T06:10:17;101036.13;;;2.82;75.08
45369;BME280;51342;55.250;37.668;2022-10-16T06:12:49;101032.25;;;2.86;75.09
45369;BME280;51342;55.250;37.668;2022-10-16T06:15:20;101035.81;;;2.95;75.18
45369;BME280;51342;55.250;37.668;2022-10-16T06:17:52;101035.75;;;3.02;75.30
45369;BME280;51342;55.250;37.668;2022-10-16T06:20:24;101033.84;;;3.08;75.01
45369;BME280;51342;55.250;37.668;2022-10-16T06:22:55;101039.22;;;3.18;75.12
45369;BME280;51342;55.250;37.668;2022-10-16T06:25:27;101040.53;;;3.31;75.03
45369;BME280;51342;55.250;37.668;2022-10-16T06:27:59;101041.47;;;3.40;74.98
45369;BME280;51342;55.250;37.668;2022-10-16T06:30:30;101050.31;;;3.51;75.03
45369;BME280;51342;55.250;37.668;2022-10-16T06:33:02;101043.59;;;3.60;74.85
45369;BME280;51342;55.250;37.668;2022-10-16T06:35:33;101046.72;;;3.73;74.43
45369;BME280;51342;55.250;37.668;2022-10-16T06:38:04;101047.84;;;3.84;74.61
45369;BME280;51342;55.250;37.668;2022-10-16T06:40:36;101049.13;;;3.96;74.29
45369;BME280;51342;55.250;37.668;2022-10-16T06:43:07;101051.91;;;4.06;74.29
45369;BME280;51342;55.250;37.668;2022-10-16T06:45:38;101045.34;;;4.17;73.54
45369;BME280;51342;55.250;37.668;2022-10-16T06:48:10;101051.44;;;4.26;73.60
45369;BME280;51342;55.250;37.668;2022-10-16T06:50:41;101044.53;;;4.34;72.73
45369;BME280;51342;55.250;37.668;2022-10-16T06:53:13;101045.94;;;4.47;72.65
45369;BME280;51342;55.250;37.668;2022-10-16T06:55:44;101033.00;;;4.55;72.64
45369;BME280;51342;55.250;37.668;2022-10-16T06:58:15;101044.22;;;4.72;72.04
45369;BME280;51342;55.250;37.668;2022-10-16T07:03:43;101053.16;;;4.93;71.22
45369;BME280;51342;55.250;37.668;2022-10-16T07:06:18;101051.84;;;5.05;71.26
45369;BME280;51342;55.250;37.668;2022-10-16T07:08:51;101048.53;;;5.15;71.13
45369;BME280;51342;55.250;37.668;2022-10-16T07:13:54;101049.63;;;5.35;70.06
45369;BME280;51342;55.250;37.668;2022-10-16T07:16:28;101048.25;;;5.47;70.16
45369;BME280;51342;55.250;37.668;2022-10-16T07:19:01;101052.81;;;5.58;69.47
45369;BME280;51342;55.250;37.668;2022-10-16T07:21:34;101056.25;;;5.67;69.62
45369;BME280;51342;55.250;37.668;2022-10-16T07:24:15;101049.19;;;5.73;68.98
45369;BME280;51342;55.250;37.668;2022-10-16T07:26:47;101046.91;;;5.85;67.87
45369;BME280;51342;55.250;37.668;2022-10-16T07:29:20;101049.31;;;5.92;68.23
45369;BME280;51342;55.250;37.668;2022-10-16T07:31:52;101056.84;;;6.08;67.41
45369;BME280;51342;55.250;37.668;2022-10-16T07:34:23;101051.53;;;6.15;67.35
45369;BME280;51342;55.250;37.668;2022-10-16T07:36:55;101049.88;;;6.24;66.83
45369;BME280;51342;55.250;37.668;2022-10-16T07:39:26;101049.97;;;6.34;66.75
45369;BME280;51342;55.250;37.668;2022-10-16T07:41:58;101053.13;;;6.41;66.44
45369;BME280;51342;55.250;37.668;2022-10-16T07:44:29;101050.66;;;6.51;65.95
45369;BME280;51342;55.250;37.668;2022-10-16T07:47:01;101045.81;;;6.54;65.58
45369;BME280;51342;55.250;37.668;2022-10-16T07:49:32;101041.53;;;6.63;65.43
45369;BME280;51342;55.250;37.668;2022-10-16T07:52:04;101044.22;;;6.73;65.17
45369;BME280;51342;55.250;37.668;2022-10-16T07:54:35;101040.69;;;6.81;65.55
45369;BME280;51342;55.250;37.668;2022-10-16T07:57:06;101037.47;;;6.93;65.16
45369;BME280;51342;55.250;37.668;2022-10-16T07:59:38;101037.53;;;7.03;64.69
45369;BME280;51342;55.250;37.668;2022-10-16T08:02:09;101043.06;;;7.16;63.55
45369;BME280;51342;55.250;37.668;2022-10-16T08:04:41;101041.31;;;7.25;63.66
45369;BME280;51342;55.250;37.668;2022-10-16T08:07:12;101048.84;;;7.32;63.24
45369;BME280;51342;55.250;37.668;2022-10-16T08:09:44;101042.59;;;7.39;62.55
45369;BME280;51342;55.250;37.668;2022-10-16T08:12:15;101038.78;;;7.44;62.77
45369;BME280;51342;55.250;37.668;2022-10-16T08:14:47;101049.75;;;7.52;62.32
45369;BME280;51342;55.250;37.668;2022-10-16T08:17:18;101043.59;;;7.60;62.78
45369;BME280;51342;55.250;37.668;2022-10-16T08:19:49;101050.38;;;7.68;62.78
45369;BME280;51342;55.250;37.668;2022-10-16T08:22:21;101045.00;;;7.75;62.45
45369;BME280;51342;55.250;37.668;2022-10-16T08:24:52;101039.63;;;7.82;61.96
45369;BME280;51342;55.250;37.668;2022-10-16T08:27:24;101035.16;;;7.90;62.15
45369;BME280;51342;55.250;37.668;2022-10-16T08:29:55;101028.09;;;7.97;62.31
45369;BME280;51342;55.250;37.668;2022-10-16T08:32:26;101031.34;;;8.05;61.76
45369;BME280;51342;55.250;37.668;2022-10-16T08:34:58;101033.84;;;8.14;60.96
45369;BME280;51342;55.250;37.668;2022-10-16T08:37:30;101023.19;;;8.19;60.99
45369;BME280;51342;55.250;37.668;2022-10-16T08:40:04;101031.44;;;8.26;60.62
45369;BME280;51342;55.250;37.668;2022-10-16T08:48:52;101023.41;;;8.41;59.37
45369;BME280;51342;55.250;37.668;2022-10-16T08:51:26;101018.78;;;8.47;59.53
45369;BME280;51342;55.250;37.668;2022-10-16T08:54:01;101013.88;;;8.50;58.05
45369;BME280;51342;55.250;37.668;2022-10-16T08:56:34;101014.28;;;8.55;59.27
45369;BME280;51342;55.250;37.668;2022-10-16T08:59:10;101020.13;;;8.63;58.62
45369;BME280;51342;55.250;37.668;2022-10-16T09:01:45;101026.69;;;8.69;58.86
45369;BME280;51342;55.250;37.668;2022-10-16T09:21:44;101016.50;;;9.01;57.28
45369;BME280;51342;55.250;37.668;2022-10-16T09:24:21;101019.75;;;9.09;56.98
45369;BME280;51342;55.250;37.668;2022-10-16T09:26:55;101019.88;;;9.11;56.93
45369;BME280;51342;55.250;37.668;2022-10-16T09:29:26;101025.56;;;9.17;57.23
45369;BME280;51342;55.250;37.668;2022-10-16T09:32:11;101010.72;;;9.14;56.69
45369;BME280;51342;55.250;37.668;2022-10-16T09:34:55;101020.78;;;9.21;57.01
45369;BME280;51342;55.250;37.668;2022-10-16T09:37:30;101018.31;;;9.23;56.44
45369;BME280;51342;55.250;37.668;2022-10-16T09:40:02;101006.19;;;9.22;55.72
45369;BME280;51342;55.250;37.668;2022-10-16T09:42:35;101012.53;;;9.25;56.16
45369;BME280;51342;55.250;37.668;2022-10-16T09:45:20;101008.50;;;9.29;55.33
45369;BME280;51342;55.250;37.668;2022-10-16T09:47:52;101004.50;;;9.33;54.90
45369;BME280;51342;55.250;37.668;2022-10-16T09:50:26;101012.38;;;9.34;55.88
45369;BME280;51342;55.250;37.668;2022-10-16T09:53:14;101017.53;;;9.34;55.87
45369;BME280;51342;55.250;37.668;2022-10-16T09:55:50;101008.38;;;9.38;55.80
45369;BME280;51342;55.250;37.668;2022-10-16T09:58:22;101006.81;;;9.40;55.65
45369;BME280;51342;55.250;37.668;2022-10-16T10:00:55;101006.81;;;9.40;55.21
45369;BME280;51342;55.250;37.668;2022-10-16T10:03:33;101006.16;;;9.42;55.21
45369;BME280;51342;55.250;37.668;2022-10-16T10:06:24;100999.16;;;9.41;55.17
45369;BME280;51342;55.250;37.668;2022-10-16T10:11:37;101002.63;;;9.52;55.67
45369;BME280;51342;55.250;37.668;2022-10-16T10:14:25;100997.63;;;9.53;55.54
45369;BME280;51342;55.250;37.668;2022-10-16T10:25:15;100989.88;;;9.53;54.11
45369;BME280;51342;55.250;37.668;2022-10-16T10:28:14;100988.19;;;9.54;54.17
45369;BME280;51342;55.250;37.668;2022-10-16T10:31:08;100987.13;;;9.52;54.40
45369;BME280;51342;55.250;37.668;2022-10-16T10:34:39;100986.25;;;9.51;54.71
45369;BME280;51342;55.250;37.668;2022-10-16T10:37:20;100986.50;;;9.54;54.22
45369;BME280;51342;55.250;37.668;2022-10-16T10:43:15;100987.28;;;9.53;54.72
45369;BME280;51342;55.250;37.668;2022-10-16T10:45:56;100984.72;;;9.53;54.13
45369;BME280;51342;55.250;37.668;2022-10-16T10:48:45;100977.69;;;9.52;54.22
45369;BME280;51342;55.250;37.668;2022-10-16T10:55:02;100981.09;;;9.41;54.37
45369;BME280;51342;55.250;37.668;2022-10-16T11:01:14;100980.06;;;9.39;54.82
45369;BME280;51342;55.250;37.668;2022-10-16T11:06:57;100974.66;;;9.36;54.84
45369;BME280;51342;55.250;37.668;2022-10-16T11:09:36;100974.78;;;9.38;54.53
45369;BME280;51342;55.250;37.668;2022-10-16T11:12:18;100972.09;;;9.36;54.80
45369;BME280;51342;55.250;37.668;2022-10-16T11:15:04;100971.81;;;9.33;53.73
45369;BME280;51342;55.250;37.668;2022-10-16T11:17:38;100966.16;;;9.17;54.78
45369;BME280;51342;55.250;37.668;2022-10-16T11:20:18;100965.25;;;9.26;54.54
45369;BME280;51342;55.250;37.668;2022-10-16T11:23:02;100956.34;;;9.23;54.36
45369;BME280;51342;55.250;37.668;2022-10-16T11:25:36;100965.63;;;9.31;54.35
45369;BME280;51342;55.250;37.668;2022-10-16T11:28:31;100961.88;;;9.27;54.58
45369;BME280;51342;55.250;37.668;2022-10-16T11:36:53;100961.22;;;9.30;54.64
45369;BME280;51342;55.250;37.668;2022-10-16T11:39:29;100956.84;;;9.29;54.26
45369;BME280;51342;55.250;37.668;2022-10-16T11:42:37;100954.81;;;9.25;54.06
45369;BME280;51342;55.250;37.668;2022-10-16T11:45:26;100951.28;;;9.24;54.18
45369;BME280;51342;55.250;37.668;2022-10-16T11:53:59;100949.75;;;9.26;52.94
45369;BME280;51342;55.250;37.668;2022-10-16T11:56:37;100947.81;;;9.24;52.46
45369;BME280;51342;55.250;37.668;2022-10-16T12:05:15;100938.38;;;9.24;53.85
45369;BME280;51342;55.250;37.668;2022-10-16T12:08:11;100940.63;;;9.20;53.33
45369;BME280;51342;55.250;37.668;2022-10-16T12:10:46;100938.66;;;9.17;52.99
45369;BME280;51342;55.250;37.668;2022-10-16T12:13:36;100931.19;;;9.20;52.34
45369;BME280;51342;55.250;37.668;2022-10-16T12:18:44;100932.31;;;9.24;53.66
45369;BME280;51342;55.250;37.668;2022-10-16T12:21:17;100935.44;;;9.20;54.36
45369;BME280;51342;55.250;37.668;2022-10-16T12:23:55;100938.78;;;9.19;53.50
45369;BME280;51342;55.250;37.668;2022-10-16T12:26:32;100934.16;;;9.15;53.38
45369;BME280;51342;55.250;37.668;2022-10-16T12:31:58;100936.88;;;9.16;53.58
45369;BME280;51342;55.250;37.668;2022-10-16T12:34:39;100929.41;;;9.09;53.71
45369;BME280;51342;55.250;37.668;2022-10-16T12:39:55;100935.97;;;9.06;53.73
45369;BME280;51342;55.250;37.668;2022-10-16T12:44:59;100934.06;;;9.03;54.12
45369;BME280;51342;55.250;37.668;2022-10-16T12:50:02;100923.97;;;9.06;53.58
45369;BME280;51342;55.250;37.668;2022-10-16T12:55:14;100929.53;;;9.00;53.95
45369;BME280;51342;55.250;37.668;2022-10-16T12:58:06;100929.91;;;8.95;54.68
45369;BME280;51342;55.250;37.668;2022-10-16T13:00:53;100929.69;;;8.92;54.27
45369;BME280;51342;55.250;37.668;2022-10-16T13:06:16;100934.34;;;8.86;55.16
45369;BME280;51342;55.250;37.668;2022-10-16T13:09:12;100933.03;;;8.81;53.95
45369;BME280;51342;55.250;37.668;2022-10-16T13:12:11;100940.91;;;8.82;53.70
45369;BME280;51342;55.250;37.668;2022-10-16T13:18:05;100932.38;;;8.83;53.81
45369;BME280;51342;55.250;37.668;2022-10-16T13:29:01;100928.50;;;8.78;54.55
45369;BME280;51342;55.250;37.668;2022-10-16T13:31:33;100932.38;;;8.73;54.63
45369;BME280;51342;55.250;37.668;2022-10-16T13:34:05;100937.28;;;8.70;54.24
45369;BME280;51342;55.250;37.668;2022-10-16T13:36:45;100920.91;;;8.59;54.59
45369;BME280;51342;55.250;37.668;2022-10-16T13:39:25;100939.09;;;8.61;54.83
45369;BME280;51342;55.250;37.668;2022-10-16T13:42:11;100931.34;;;8.50;54.73
45369;BME280;51342;55.250;37.668;2022-10-16T13:44:46;100939.94;;;8.31;55.21
45369;BME280;51342;55.250;37.668;2022-10-16T13:47:20;100934.56;;;8.38;55.29
45369;BME280;51342;55.250;37.668;2022-10-16T13:50:04;100935.19;;;8.35;54.49
45369;BME280;51342;55.250;37.668;2022-10-16T13:52:36;100938.31;;;8.41;54.92
45369;BME280;51342;55.250;37.668;2022-10-16T13:55:15;100938.19;;;8.40;54.95
45369;BME280;51342;55.250;37.668;2022-10-16T13:57:47;100939.72;;;8.38;55.18
45369;BME280;51342;55.250;37.668;2022-10-16T14:00:24;100933.88;;;8.30;55.19
45369;BME280;51342;55.250;37.668;2022-10-16T14:03:02;100935.66;;;8.21;55.52
45369;BME280;51342;55.250;37.668;2022-10-16T14:05:34;100941.47;;;8.18;55.30
45369;BME280;51342;55.250;37.668;2022-10-16T14:08:09;100936.19;;;8.17;55.07
45369;BME280;51342;55.250;37.668;2022-10-16T14:10:42;100941.19;;;8.15;55.22
45369;BME280;51342;55.250;37.668;2022-10-16T14:13:17;100933.97;;;8.11;55.59
45369;BME280;51342;55.250;37.668;2022-10-16T14:15:51;100941.31;;;8.07;55.08
45369;BME280;51342;55.250;37.668;2022-10-16T14:18:25;100937.41;;;8.02;55.38
45369;BME280;51342;55.250;37.668;2022-10-16T14:21:04;100926.16;;;7.91;55.65
45369;BME280;51342;55.250;37.668;2022-10-16T14:23:37;100934.53;;;7.88;55.69
45369;BME280;51342;55.250;37.668;2022-10-16T14:28:42;100929.84;;;7.74;55.97
45369;BME280;51342;55.250;37.668;2022-10-16T14:31:25;100942.06;;;7.66;55.69
45369;BME280;51342;55.250;37.668;2022-10-16T14:33:57;100945.00;;;7.61;55.93
45369;BME280;51342;55.250;37.668;2022-10-16T14:36:29;100943.41;;;7.53;56.61
45369;BME280;51342;55.250;37.668;2022-10-16T14:39:17;100946.78;;;7.33;56.80
45369;BME280;51342;55.250;37.668;2022-10-16T14:41:51;100943.91;;;7.30;57.24
45369;BME280;51342;55.250;37.668;2022-10-16T14:44:29;100941.00;;;7.16;57.30
45369;BME280;51342;55.250;37.668;2022-10-16T14:47:28;100944.16;;;7.04;57.40
45369;BME280;51342;55.250;37.668;2022-10-16T14:49:59;100952.94;;;6.78;58.03
45369;BME280;51342;55.250;37.668;2022-10-16T14:52:30;100945.53;;;6.81;58.36
45369;BME280;51342;55.250;37.668;2022-10-16T14:55:02;100954.16;;;6.82;58.41
45369;BME280;51342;55.250;37.668;2022-10-16T14:57:36;100954.31;;;6.75;58.56
45369;BME280;51342;55.250;37.668;2022-10-16T15:02:44;100957.44;;;6.62;59.33
45369;BME280;51342;55.250;37.668;2022-10-16T15:05:22;100952.38;;;6.53;59.53
45369;BME280;51342;55.250;37.668;2022-10-16T15:07:56;100961.78;;;6.44;59.79
45369;BME280;51342;55.250;37.668;2022-10-16T15:10:28;100951.06;;;6.40;59.92
45369;BME280;51342;55.250;37.668;2022-10-16T15:13:01;100955.75;;;6.35;60.35
45369;BME280;51342;55.250;37.668;2022-10-16T15:18:13;100953.13;;;6.25;60.49
45369;BME280;51342;55.250;37.668;2022-10-16T15:20:49;100952.53;;;6.19;60.28
45369;BME280;51342;55.250;37.668;2022-10-16T15:23:24;100950.44;;;6.15;60.91
45369;BME280;51342;55.250;37.668;2022-10-16T15:25:56;100955.25;;;6.11;61.12
45369;BME280;51342;55.250;37.668;2022-10-16T15:28:28;100954.84;;;6.07;61.20
45369;BME280;51342;55.250;37.668;2022-10-16T15:30:59;100948.84;;;5.98;61.17
45369;BME280;51342;55.250;37.668;2022-10-16T15:33:31;100949.16;;;5.92;61.46
45369;BME280;51342;55.250;37.668;2022-10-16T15:36:05;100958.53;;;5.92;61.47
45369;BME280;51342;55.250;37.668;2022-10-16T15:38:37;100955.06;;;5.91;62.07
45369;BME280;51342;55.250;37.668;2022-10-16T15:41:08;100946.41;;;5.82;61.84
45369;BME280;51342;55.250;37.668;2022-10-16T15:43:39;100947.47;;;5.84;62.25